Flight Track Log - Related Links

Times and Time Zones

All times are in EDT time to prevent confusion due to time zone crossing. See the RPA3228 flight status page for this flight to view local times or setup timezone preferences in your user account.

Time Position Orientation Groundspeed Altitude Reporting Facility
EDT Latitude Longitude Course Direction KTS MPH feet Rate Location/Type
Sat 07:41:15 AM 36.1333 -86.6500 56° Northeast 147 169 1,800  Level Nashville TRACON
Sat 07:41:21 AM 36.1333 -86.6500 56° Northeast 146 168 2,000 2,364 Climbing Nashville TRACON
Sat 07:42:21 AM 36.1667 -86.6000 50° Northeast 209 241 4,400 2,504 Climbing Nashville TRACON
Sat 07:43:00 AM 36.2554 -86.2847 64° Northeast  Level Estimated
Sat 07:43:40 AM 36.1672 -86.4928 90° East 269 310 7,800  Level Memphis Center
Sat 07:44:00 AM 36.2987 -86.1532 68° East  Level Estimated
Sat 07:44:40 AM 36.1767 -86.3947 83° East 281 323 10,800  Level Memphis Center
Sat 07:45:00 AM 36.3419 -86.0216 50° Northeast  Level Estimated
Sat 07:45:40 AM 36.1836 -86.2914 85° East 294 338 13,500  Level Memphis Center
Sat 07:46:00 AM 36.3850 -85.8898 56° Northeast  Level Estimated
Sat 07:46:40 AM 36.1903 -86.1806 86° East 307 353 16,100  Level Memphis Center
Sat 07:47:40 AM 36.2050 -86.0589 81° East 319 367 18,600 2,350 Climbing Memphis Center
Sat 07:48:40 AM 36.2494 -85.9564 62° Northeast 319 367 20,800 2,137 Climbing Memphis Center
Sat 07:50:06 AM 36.3142 -85.8142 61° Northeast 340 391 23,800 2,082 Climbing Indianapolis Center
Sat 07:51:07 AM 36.3631 -85.7119 59° Northeast 343 395 25,900 1,918 Climbing Indianapolis Center
Sat 07:52:08 AM 36.4119 -85.6067 60° Northeast 348 400 27,700 1,967 Climbing Indianapolis Center
Sat 07:53:09 AM 36.4647 -85.4981 59° Northeast 361 415 29,900 2,164 Climbing Indianapolis Center
Sat 07:54:10 AM 36.5156 -85.3911 59° Northeast 357 411 32,100 1,537 Climbing Indianapolis Center
Sat 07:55:10 AM 36.5644 -85.2853 60° Northeast 352 405 33,000 446 Climbing Indianapolis Center
Sat 07:56:11 AM 36.6128 -85.1803 60° Northeast 349 402 33,000  Level Indianapolis Center
Sat 07:57:12 AM 36.6497 -85.0656 68° East 355 409 33,000  Level Indianapolis Center
Sat 07:58:13 AM 36.6856 -84.9500 69° East 355 409 33,000  Level Indianapolis Center
Sat 07:59:14 AM 36.7197 -84.8331 70° East 358 412 33,000  Level Indianapolis Center
Sat 08:00:15 AM 36.7550 -84.7186 69° East 355 409 33,000  Level Indianapolis Center
Sat 08:01:16 AM 36.7897 -84.6022 70° East 356 410 33,000  Level Indianapolis Center
Sat 08:02:17 AM 36.8261 -84.4819 69° East 354 407 33,000  Level Indianapolis Center
Sat 08:03:18 AM 36.8614 -84.3661 69° East 357 411 33,000  Level Indianapolis Center
Sat 08:04:19 AM 36.8972 -84.2511 69° East 354 407 33,000  Level Indianapolis Center
Sat 08:05:20 AM 36.9375 -84.1156 70° East 356 410 33,000  Level Indianapolis Center
Sat 08:06:21 AM 36.9722 -83.9992 69° East 358 412 33,000  Level Indianapolis Center
Sat 08:07:22 AM 37.0061 -83.8814 70° East 359 413 33,000  Level Indianapolis Center
Sat 08:08:23 AM 37.0408 -83.7647 70° East 356 410 33,000  Level Indianapolis Center
Sat 08:09:24 AM 37.0758 -83.6483 69° East 355 409 33,000  Level Indianapolis Center
Sat 08:10:25 AM 37.1094 -83.5303 70° East 358 412 33,000  Level Indianapolis Center
Sat 08:11:25 AM 37.1439 -83.4136 70° East 355 409 33,000  Level Indianapolis Center
Sat 08:12:26 AM 37.1778 -83.2961 70° East 355 409 33,000  Level Indianapolis Center
Sat 08:13:27 AM 37.2119 -83.1786 70° East 356 410 33,000  Level Indianapolis Center
Sat 08:14:29 AM 37.2461 -83.0600 70° East 357 411 33,000  Level Indianapolis Center
Sat 08:15:30 AM 37.2797 -82.9403 71° East 359 413 33,000  Level Indianapolis Center
Sat 08:16:31 AM 37.3139 -82.8217 70° East 357 411 33,000  Level Indianapolis Center
Sat 08:17:32 AM 37.3481 -82.7025 70° East 359 413 33,000  Level Indianapolis Center
Sat 08:18:33 AM 37.3811 -82.5861 70° East 354 407 33,000  Level Indianapolis Center
Sat 08:19:34 AM 37.4144 -82.4675 70° East 356 410 33,000  Level Indianapolis Center
Sat 08:20:35 AM 37.4458 -82.3489 72° East 357 411 33,000  Level Indianapolis Center
Sat 08:21:36 AM 37.4808 -82.2317 69° East 357 411 33,000  Level Indianapolis Center
Sat 08:22:37 AM 37.5181 -82.0942 71° East 354 407 33,000  Level Indianapolis Center
Sat 08:23:38 AM 37.5522 -81.9700 71° East 370 426 33,000  Level Indianapolis Center
Sat 08:24:39 AM 37.5867 -81.8475 70° East 371 427 33,000  Level Indianapolis Center
Sat 08:25:40 AM 37.6197 -81.7250 71° East 369 425 33,000  Level Indianapolis Center
Sat 08:26:42 AM 37.6522 -81.6017 72° East 369 425 33,000  Level Indianapolis Center
Sat 08:27:43 AM 37.6869 -81.4744 71° East 373 429 33,000  Level Indianapolis Center
Sat 08:28:44 AM 37.7181 -81.3542 72° East 370 426 33,000  Level Indianapolis Center
Sat 08:29:45 AM 37.7514 -81.2344 71° East 370 426 33,000  Level Indianapolis Center
Sat 08:30:46 AM 37.7833 -81.1144 71° East 371 427 33,000  Level Indianapolis Center
Sat 08:31:47 AM 37.8283 -80.9886 66° East 372 428 33,000  Level Indianapolis Center
Sat 08:32:49 AM 37.8700 -80.8694 66° East 370 426 33,000  Level Indianapolis Center
Sat 08:33:50 AM 37.9114 -80.7531 66° East 369 425 33,000  Level Indianapolis Center
Sat 08:34:51 AM 37.9542 -80.6336 66° East 372 428 33,000  Level Indianapolis Center
Sat 08:35:39 AM 37.9922 -80.5322 65° Northeast 366 421 33,000  Level Washington Center
Sat 08:36:41 AM 38.0394 -80.3983 66° East 372 428 33,000  Level Washington Center
Sat 08:37:41 AM 38.0817 -80.2769 66° East 372 428 33,000  Level Washington Center
Sat 08:38:42 AM 38.1261 -80.1558 65° Northeast 372 428 33,000  Level Washington Center
Sat 08:39:39 AM 38.1703 -80.0317 66° East 372 428 33,000  Level Washington Center
Sat 08:40:40 AM 38.2122 -79.9100 66° East 372 428 33,000  Level Washington Center
Sat 08:41:41 AM 38.2539 -79.7986 65° Northeast 377 434 33,000  Level Washington Center
Sat 08:42:42 AM 38.2956 -79.6739 67° East 377 434 33,000  Level Washington Center
Sat 08:43:40 AM 38.3394 -79.5492 66° East 377 434 33,000 -153 Level Washington Center
Sat 08:44:40 AM 38.3831 -79.4272 65° Northeast 377 434 32,700 -1,339 Descending Washington Center
Sat 08:45:41 AM 38.4272 -79.2811 69° East 383 441 30,300 -2,231 Descending Washington Center
Sat 08:46:41 AM 38.4567 -79.1367 75° East 396 456 28,200 -1,271 Descending Washington Center
Sat 08:47:39 AM 38.4819 -78.9867 78° East 414 476 27,800 -1,059 Descending Washington Center
Sat 08:48:40 AM 38.5003 -78.8494 80° East 424 488 26,100 -1,918 Descending Washington Center
Sat 08:49:41 AM 38.5250 -78.7019 78° East 430 495 23,900 -1,934 Descending Washington Center
Sat 08:50:41 AM 38.5453 -78.5567 80° East 425 489 22,200 -1,339 Descending Washington Center
Sat 08:51:42 AM 38.5697 -78.4144 78° East 415 478 21,200 -1,289 Descending Washington Center
Sat 08:52:42 AM 38.5917 -78.2772 78° East 403 464 19,600 -1,744 Descending Washington Center
Sat 08:53:39 AM 38.6300 -78.1456 70° East 397 457 17,800 -1,831 Descending Washington Center
Sat 08:54:40 AM 38.6700 -78.0219 67° East 384 442 16,000 -1,736 Descending Washington Center
Sat 08:55:40 AM 38.7056 -77.9089 68° East 371 427 14,300 -1,587 Descending Washington Center
Sat 08:56:41 AM 38.7428 -77.8114 64° Northeast 332 382 12,800 -1,339 Descending Washington Center
Sat 08:57:41 AM 38.7964 -77.7306 50° Northeast 303 349 11,600 -1,240 Descending Washington Center
Sat 08:58:42 AM 38.8461 -77.6361 56° Northeast 290 334 10,300 -1,261 Descending Washington Center
Sat 08:59:40 AM 38.8808 -77.5408 65° Northeast 285 328 9,100 -1,274 Descending Washington Center
Sat 09:01:08 AM 38.8833 -77.4000 89° East 297 342 7,200 -1,257 Descending Potomac TRACON
Sat 09:02:08 AM 38.8500 -77.3000 113° Southeast 277 319 6,000 -595 Descending Potomac TRACON
Sat 09:03:09 AM 38.8167 -77.2333 123° Southeast 212 244 6,000  Level Potomac TRACON
Sat 09:04:08 AM 38.7833 -77.1667 123° Southeast 211 243 6,000 -101 Level Potomac TRACON
Sat 09:05:08 AM 38.7500 -77.1167 131° Southeast 219 252 5,800 -744 Descending Potomac TRACON
Sat 09:06:09 AM 38.7000 -77.1167 180° South 206 237 4,500 -893 Descending Potomac TRACON
Sat 09:07:09 AM 38.6333 -77.1000 169° South 205 236 4,000 -250 Descending Potomac TRACON
Sat 09:08:09 AM 38.5833 -77.1000 180° South 208 239 4,000  Level Potomac TRACON
Sat 09:09:03 AM 38.5333 -77.0833 165° South 216 249 4,000 -368 Level Potomac TRACON
Sat 09:10:03 AM 38.5333 -77.0167 90° East 201 231 3,300 -500 Descending Potomac TRACON
Sat 09:11:03 AM 38.5833 -77.0167 360° North 161 185 3,000 -150 Descending Potomac TRACON
Sat 09:12:03 AM 38.6333 -77.0167 360° North 166 191 3,000  Level Potomac TRACON
Sat 09:12:57 AM 38.6667 -77.0167 360° North 165 190 3,000 -261 Level Potomac TRACON
Sat 09:13:58 AM 38.7167 -77.0167 360° North 159 183 2,500 -694 Descending Potomac TRACON
Sat 09:14:58 AM 38.7667 -77.0333 345° North 160 184 1,600 -800 Descending Potomac TRACON
Sat 09:15:58 AM 38.8000 -77.0333 360° North 125 144 900 -700 Descending Potomac TRACON

Login

Don't have an account? Register now (free) for customized features, flight alerts, and more!